Vermilion, Canada
Current Conditions -  °F | °C
As of 7:00 PM on Sunday 25 Jan 2015 (Local Time) from CYLL Reporting Station
Clear Clear  
Wind Chill: 30°   Ceiling: Unl
Heat Index: 39°   Visibility: 15mi
Dew Point: 28°   Wind: 16mph
Humidity: 65%   Direction: 290°WNW
Pressure: 29.74"   Gusts: NA
Location:  53.35°N, 110.86°W
Report Text: CYLL 260200Z 29014KT 15SM SKC 04/M02 A2974 RMK SLP098
Loading
Personal Weather Stations






























Interactive Weather Map New forecast layout! Learn more

10-Day Weather Forecast

Advertisements
Track Severe Weather on mobile